Terminal Aerodrome Forecast
Issued by NWS Wilmington, OH

Current Version | Previous Version | Graphics & Text | Print | Product List | Glossary On
Versions: 1 2 3 4 5 6 7 8 9 10 11 12 13 14 15 16 17 18 19 20 21 22 23 24
166
FTUS41 KILN 181456 AAA
TAFCVG
TAF AMD
KCVG 181456Z 1815/1918 11009KT P6SM SCT060
     FM182100 15010KT P6SM VCSH BKN035
     FM182200 20010G20KT P6SM VCSH OVC035
     FM190100 28015G25KT P6SM VCSH OVC025
     FM190600 28015G24KT P6SM OVC015
     FM191300 32015G24KT P6SM BKN025=

USA.gov is the U.S. government's official web portal to all federal, state and local government web resources and services.